Time,TemperatureF,DewpointF,PressureIn,WindDirection,WindDirectionDegrees,WindSpeedMPH,WindSpeedGustMPH,Humidity,HourlyPrecipIn,Conditions,Clouds,dailyrainin,SolarRadiationWatts/m^2,SoftwareType,DateUTC
2013-04-06 00:02:00,40.0,34.0,-100.00,East,91,5.0,7.0,78,0.00,,,0.13,0.000000,,2013-04-06 06:02:00,
2013-04-06 00:12:00,40.0,34.0,-100.00,East,91,5.0,7.0,78,0.00,,,0.13,0.000000,,2013-04-06 06:12:00,
2013-04-06 00:22:00,40.0,34.0,-100.00,East,91,5.0,7.0,78,0.00,,,0.13,0.000000,,2013-04-06 06:22:00,
2013-04-06 00:32:00,40.0,34.0,-100.00,East,91,5.0,7.0,78,0.00,,,0.13,0.000000,,2013-04-06 06:32:00,
2013-04-06 01:03:00,38.0,32.0,-100.00,East,86,6.0,9.0,78,0.00,,,0.13,0.000000,,2013-04-06 07:03:00,
2013-04-06 01:12:00,38.0,32.0,-100.00,East,86,6.0,9.0,78,0.00,,,0.13,0.000000,,2013-04-06 07:12:00,
2013-04-06 01:22:00,38.0,32.0,-100.00,East,86,6.0,9.0,78,0.00,,,0.13,0.000000,,2013-04-06 07:22:00,
2013-04-06 01:32:00,38.0,32.0,-100.00,East,86,6.0,9.0,78,0.00,,,0.13,0.000000,,2013-04-06 07:32:00,
2013-04-06 02:02:00,40.0,31.0,-100.00,SE,146,5.0,10.0,69,0.00,,,0.13,0.000000,,2013-04-06 08:02:00,
2013-04-06 02:12:00,40.0,31.0,-100.00,SE,146,5.0,10.0,69,0.00,,,0.13,0.000000,,2013-04-06 08:12:00,
2013-04-06 02:22:00,40.0,31.0,-100.00,SE,146,5.0,10.0,69,0.00,,,0.13,0.000000,,2013-04-06 08:22:00,
2013-04-06 02:32:00,40.0,31.0,-100.00,SE,146,5.0,10.0,69,0.00,,,0.13,0.000000,,2013-04-06 08:32:00,
2013-04-06 03:02:00,39.0,33.0,-100.00,SE,131,6.0,13.0,79,0.00,,,0.12,0.000000,,2013-04-06 09:02:00,
2013-04-06 03:12:00,39.0,33.0,-100.00,SE,131,6.0,13.0,79,0.00,,,0.12,0.000000,,2013-04-06 09:12:00,
2013-04-06 03:22:00,39.0,33.0,-100.00,SE,131,6.0,13.0,79,0.00,,,0.12,0.000000,,2013-04-06 09:22:00,
2013-04-06 03:32:00,39.0,33.0,-100.00,SE,131,6.0,13.0,79,0.00,,,0.12,0.000000,,2013-04-06 09:32:00,
2013-04-06 04:03:00,37.0,35.0,-100.00,ESE,113,8.0,12.0,91,0.01,,,0.12,0.000000,,2013-04-06 10:03:00,
2013-04-06 04:12:00,37.0,35.0,-100.00,ESE,113,8.0,12.0,91,0.01,,,0.12,0.000000,,2013-04-06 10:12:00,
2013-04-06 04:22:00,37.0,35.0,-100.00,ESE,113,8.0,12.0,91,0.01,,,0.12,0.000000,,2013-04-06 10:22:00,
2013-04-06 04:32:00,37.0,35.0,-100.00,ESE,113,8.0,12.0,91,0.01,,,0.12,0.000000,,2013-04-06 10:32:00,
2013-04-06 05:02:00,37.0,34.0,-100.00,ESE,106,8.0,13.0,90,0.01,,,0.12,0.000000,,2013-04-06 11:02:00,
2013-04-06 05:12:00,37.0,34.0,-100.00,ESE,106,8.0,13.0,90,0.01,,,0.12,0.000000,,2013-04-06 11:12:00,
2013-04-06 05:22:00,37.0,34.0,-100.00,ESE,106,8.0,13.0,90,0.01,,,0.12,0.000000,,2013-04-06 11:22:00,
2013-04-06 05:32:00,37.0,34.0,-100.00,ESE,106,8.0,13.0,90,0.01,,,0.12,0.000000,,2013-04-06 11:32:00,
2013-04-06 06:02:00,37.0,35.0,-100.00,ESE,105,10.0,16.0,91,0.02,,,0.07,0.000000,,2013-04-06 12:02:00,
2013-04-06 06:12:00,37.0,35.0,-100.00,ESE,105,10.0,16.0,91,0.02,,,0.07,0.000000,,2013-04-06 12:12:00,
2013-04-06 06:22:00,37.0,35.0,-100.00,ESE,105,10.0,16.0,91,0.02,,,0.07,0.000000,,2013-04-06 12:22:00,
2013-04-06 06:32:00,37.0,35.0,-100.00,ESE,105,10.0,16.0,91,0.02,,,0.07,0.000000,,2013-04-06 12:32:00,
2013-04-06 07:02:00,38.0,35.0,-100.00,ESE,102,6.0,12.0,89,0.02,,,0.06,0.000000,,2013-04-06 13:02:00,
2013-04-06 07:12:00,38.0,35.0,-100.00,ESE,102,6.0,12.0,89,0.02,,,0.06,0.000000,,2013-04-06 13:12:00,
2013-04-06 07:23:00,38.0,35.0,-100.00,ESE,102,6.0,12.0,89,0.02,,,0.06,0.000000,,2013-04-06 13:23:00,
2013-04-06 07:32:00,38.0,35.0,-100.00,ESE,102,6.0,12.0,89,0.02,,,0.06,0.000000,,2013-04-06 13:32:00,
2013-04-06 08:03:00,37.0,35.0,-100.00,ESE,107,8.0,13.0,93,0.02,,,0.08,2.000000,,2013-04-06 14:03:00,
2013-04-06 08:12:00,37.0,35.0,-100.00,ESE,107,8.0,13.0,93,0.02,,,0.08,2.000000,,2013-04-06 14:12:00,
2013-04-06 08:22:00,37.0,35.0,-100.00,ESE,107,8.0,13.0,93,0.02,,,0.08,2.000000,,2013-04-06 14:22:00,
2013-04-06 08:32:00,37.0,35.0,-100.00,ESE,107,8.0,13.0,93,0.02,,,0.08,2.000000,,2013-04-06 14:32:00,
2013-04-06 09:02:00,37.0,36.0,-100.00,East,100,8.0,12.0,95,0.01,,,0.09,38.000000,,2013-04-06 15:02:00,
2013-04-06 09:12:00,37.0,36.0,-100.00,East,100,8.0,12.0,95,0.01,,,0.09,38.000000,,2013-04-06 15:12:00,
2013-04-06 09:22:00,37.0,36.0,-100.00,East,100,8.0,12.0,95,0.01,,,0.09,38.000000,,2013-04-06 15:22:00,
2013-04-06 09:32:00,37.0,36.0,-100.00,East,100,8.0,12.0,95,0.01,,,0.09,38.000000,,2013-04-06 15:32:00,
2013-04-06 10:04:00,38.0,36.0,-100.00,East,96,8.0,13.0,92,0.00,,,0.09,122.000000,,2013-04-06 16:04:00,
2013-04-06 10:17:00,38.0,36.0,-100.00,East,96,8.0,13.0,92,0.00,,,0.09,122.000000,,2013-04-06 16:17:00,
2013-04-06 10:22:00,38.0,36.0,-100.00,East,96,8.0,13.0,92,0.00,,,0.09,122.000000,,2013-04-06 16:22:00,
2013-04-06 10:32:00,38.0,36.0,-100.00,East,96,8.0,13.0,92,0.00,,,0.09,122.000000,,2013-04-06 16:32:00,
2013-04-06 11:02:00,39.0,37.0,-100.00,East,97,8.0,13.0,91,0.01,,,0.10,115.000000,,2013-04-06 17:02:00,
2013-04-06 11:12:00,39.0,37.0,-100.00,East,97,8.0,13.0,91,0.01,,,0.10,115.000000,,2013-04-06 17:12:00,
2013-04-06 11:22:00,39.0,37.0,-100.00,East,97,8.0,13.0,91,0.01,,,0.10,115.000000,,2013-04-06 17:22:00,
2013-04-06 11:32:00,39.0,37.0,-100.00,East,97,8.0,13.0,91,0.01,,,0.10,115.000000,,2013-04-06 17:32:00,
2013-04-06 12:02:00,40.0,37.0,-100.00,ESE,113,9.0,13.0,89,0.01,,,0.11,193.000000,,2013-04-06 18:02:00,
2013-04-06 12:12:00,40.0,37.0,-100.00,ESE,113,9.0,13.0,89,0.01,,,0.11,193.000000,,2013-04-06 18:12:00,
2013-04-06 12:23:00,40.0,37.0,-100.00,ESE,113,9.0,13.0,89,0.01,,,0.11,193.000000,,2013-04-06 18:23:00,
2013-04-06 12:32:00,40.0,37.0,-100.00,ESE,113,9.0,13.0,89,0.01,,,0.11,193.000000,,2013-04-06 18:32:00,
2013-04-06 13:02:00,40.0,37.0,-100.00,SE,125,8.0,14.0,88,0.03,,,0.14,260.000000,,2013-04-06 19:02:00,
2013-04-06 13:12:00,40.0,37.0,-100.00,SE,125,8.0,14.0,88,0.03,,,0.14,260.000000,,2013-04-06 19:12:00,
2013-04-06 13:22:00,40.0,37.0,-100.00,SE,125,8.0,14.0,88,0.03,,,0.14,260.000000,,2013-04-06 19:22:00,
2013-04-06 13:32:00,40.0,37.0,-100.00,SE,125,8.0,14.0,88,0.03,,,0.14,260.000000,,2013-04-06 19:32:00,
2013-04-06 14:02:00,38.0,35.0,-100.00,WSW,250,3.0,15.0,89,0.08,,,0.22,115.000000,,2013-04-06 20:02:00,
2013-04-06 14:12:00,38.0,35.0,-100.00,WSW,250,3.0,15.0,89,0.08,,,0.22,115.000000,,2013-04-06 20:12:00,
2013-04-06 14:22:00,38.0,35.0,-100.00,WSW,250,3.0,15.0,89,0.08,,,0.22,115.000000,,2013-04-06 20:22:00,
2013-04-06 14:32:00,38.0,35.0,-100.00,WSW,250,3.0,15.0,89,0.08,,,0.22,115.000000,,2013-04-06 20:32:00,
2013-04-06 15:02:00,41.0,37.0,-100.00,NE,47,6.0,10.0,86,0.03,,,0.25,236.000000,,2013-04-06 21:02:00,
2013-04-06 15:13:00,41.0,37.0,-100.00,NE,47,6.0,10.0,86,0.03,,,0.25,236.000000,,2013-04-06 21:13:00,
2013-04-06 15:22:00,41.0,37.0,-100.00,NE,47,6.0,10.0,86,0.03,,,0.25,236.000000,,2013-04-06 21:22:00,
2013-04-06 15:33:00,41.0,37.0,-100.00,NE,47,6.0,10.0,86,0.03,,,0.25,236.000000,,2013-04-06 21:33:00,
2013-04-06 16:02:00,46.0,39.0,-100.00,SE,136,8.0,16.0,75,0.00,,,0.25,565.000000,,2013-04-06 22:02:00,
2013-04-06 16:13:00,46.0,39.0,-100.00,SE,136,8.0,16.0,75,0.00,,,0.25,565.000000,,2013-04-06 22:13:00,
2013-04-06 16:22:00,46.0,39.0,-100.00,SE,136,8.0,16.0,75,0.00,,,0.25,565.000000,,2013-04-06 22:22:00,
2013-04-06 16:33:00,46.0,39.0,-100.00,SE,136,8.0,16.0,75,0.00,,,0.25,565.000000,,2013-04-06 22:33:00,
2013-04-06 17:03:00,45.0,35.0,-100.00,SSE,155,6.0,16.0,69,0.00,,,-99.99,389.000000,,2013-04-06 23:03:00,
2013-04-06 17:13:00,45.0,35.0,-100.00,SSE,155,6.0,16.0,69,0.00,,,-99.99,389.000000,,2013-04-06 23:13:00,
2013-04-06 17:22:00,45.0,35.0,-100.00,SSE,155,6.0,16.0,69,0.00,,,-99.99,389.000000,,2013-04-06 23:22:00,
2013-04-06 17:33:00,45.0,35.0,-100.00,SSE,155,6.0,16.0,69,0.00,,,-99.99,389.000000,,2013-04-06 23:33:00,
2013-04-06 18:02:00,38.0,33.0,-100.00,SSW,206,5.0,21.0,81,0.02,,,0.27,150.000000,,2013-04-07 00:02:00,
2013-04-06 18:12:00,38.0,33.0,-100.00,SSW,206,5.0,21.0,81,0.02,,,0.27,150.000000,,2013-04-07 00:12:00,
2013-04-06 18:22:00,38.0,33.0,-100.00,SSW,206,5.0,21.0,81,0.02,,,0.27,150.000000,,2013-04-07 00:22:00,
2013-04-06 18:32:00,38.0,33.0,-100.00,SSW,206,5.0,21.0,81,0.02,,,0.27,150.000000,,2013-04-07 00:32:00,
2013-04-06 19:02:00,41.0,35.0,-100.00,ESE,113,6.0,13.0,78,0.00,,,0.27,128.000000,,2013-04-07 01:02:00,
2013-04-06 19:12:00,41.0,35.0,-100.00,ESE,113,6.0,13.0,78,0.00,,,0.27,128.000000,,2013-04-07 01:12:00,
2013-04-06 19:22:00,41.0,35.0,-100.00,ESE,113,6.0,13.0,78,0.00,,,0.27,128.000000,,2013-04-07 01:22:00,
2013-04-06 19:32:00,41.0,35.0,-100.00,ESE,113,6.0,13.0,78,0.00,,,0.27,128.000000,,2013-04-07 01:32:00,
2013-04-06 20:02:00,40.0,35.0,-100.00,East,88,4.0,8.0,82,0.00,,,0.27,66.000000,,2013-04-07 02:02:00,
2013-04-06 20:12:00,40.0,35.0,-100.00,East,88,4.0,8.0,82,0.00,,,0.27,66.000000,,2013-04-07 02:12:00,
2013-04-06 20:22:00,40.0,35.0,-100.00,East,88,4.0,8.0,82,0.00,,,0.27,66.000000,,2013-04-07 02:22:00,
2013-04-06 20:32:00,40.0,35.0,-100.00,East,88,4.0,8.0,82,0.00,,,0.27,66.000000,,2013-04-07 02:32:00,
2013-04-06 21:02:00,39.0,34.0,-100.00,NW,306,0.0,4.0,83,0.00,,,0.27,7.000000,,2013-04-07 03:02:00,
2013-04-06 21:12:00,39.0,34.0,-100.00,NW,306,0.0,4.0,83,0.00,,,0.27,7.000000,,2013-04-07 03:12:00,
2013-04-06 21:22:00,39.0,34.0,-100.00,NW,306,0.0,4.0,83,0.00,,,0.27,7.000000,,2013-04-07 03:22:00,
2013-04-06 21:33:00,39.0,34.0,-100.00,NW,306,0.0,4.0,83,0.00,,,0.27,7.000000,,2013-04-07 03:33:00,
2013-04-06 22:03:00,36.0,34.0,-100.00,NW,314,5.0,10.0,93,0.06,,,0.33,0.000000,,2013-04-07 04:03:00,
2013-04-06 22:13:00,36.0,34.0,-100.00,NW,314,5.0,10.0,93,0.06,,,0.33,0.000000,,2013-04-07 04:13:00,
2013-04-06 22:23:00,36.0,34.0,-100.00,NW,314,5.0,10.0,93,0.06,,,0.33,0.000000,,2013-04-07 04:23:00,
2013-04-06 22:32:00,36.0,34.0,-100.00,NW,314,5.0,10.0,93,0.06,,,0.33,0.000000,,2013-04-07 04:32:00,
2013-04-06 23:02:00,36.0,35.0,-100.00,ENE,69,2.0,7.0,95,0.03,,,0.36,0.000000,,2013-04-07 05:02:00,
2013-04-06 23:12:00,36.0,35.0,-100.00,ENE,69,2.0,7.0,95,0.03,,,0.36,0.000000,,2013-04-07 05:12:00,
2013-04-06 23:22:00,36.0,35.0,-100.00,ENE,69,2.0,7.0,95,0.03,,,0.36,0.000000,,2013-04-07 05:22:00,
2013-04-06 23:32:00,36.0,35.0,-100.00,ENE,69,2.0,7.0,95,0.03,,,0.36,0.000000,,2013-04-07 05:32:00,